sensor_id;sensor_type;location;lat;lon;timestamp;P1;durP1;ratioP1;P2;durP2;ratioP2
45114;SDS011;30877;43.706;10.780;2022-12-26T00:01:47;13.07;;;7.15;;
45114;SDS011;30877;43.706;10.780;2022-12-26T00:04:17;12.02;;;7.60;;
45114;SDS011;30877;43.706;10.780;2022-12-26T00:07:07;13.77;;;8.45;;
45114;SDS011;30877;43.706;10.780;2022-12-26T00:09:35;14.68;;;8.73;;
45114;SDS011;30877;43.706;10.780;2022-12-26T00:12:03;21.55;;;9.57;;
45114;SDS011;30877;43.706;10.780;2022-12-26T00:14:32;35.92;;;10.90;;
45114;SDS011;30877;43.706;10.780;2022-12-26T00:17:00;28.60;;;10.65;;
45114;SDS011;30877;43.706;10.780;2022-12-26T00:19:28;26.98;;;10.48;;
45114;SDS011;30877;43.706;10.780;2022-12-26T00:21:56;28.77;;;9.65;;
45114;SDS011;30877;43.706;10.780;2022-12-26T00:24:26;28.90;;;9.90;;
45114;SDS011;30877;43.706;10.780;2022-12-26T00:26:54;38.20;;;10.70;;
45114;SDS011;30877;43.706;10.780;2022-12-26T00:29:22;26.80;;;10.07;;
45114;SDS011;30877;43.706;10.780;2022-12-26T00:31:51;35.60;;;10.82;;
45114;SDS011;30877;43.706;10.780;2022-12-26T00:34:19;28.90;;;11.23;;
45114;SDS011;30877;43.706;10.780;2022-12-26T00:36:47;24.85;;;10.52;;
45114;SDS011;30877;43.706;10.780;2022-12-26T00:39:15;23.52;;;10.65;;
45114;SDS011;30877;43.706;10.780;2022-12-26T00:41:47;22.83;;;9.43;;
45114;SDS011;30877;43.706;10.780;2022-12-26T00:44:16;20.80;;;8.75;;
45114;SDS011;30877;43.706;10.780;2022-12-26T00:46:44;13.75;;;8.43;;
45114;SDS011;30877;43.706;10.780;2022-12-26T00:49:13;20.10;;;8.82;;
45114;SDS011;30877;43.706;10.780;2022-12-26T00:51:41;12.50;;;8.50;;
45114;SDS011;30877;43.706;10.780;2022-12-26T00:54:09;12.00;;;8.40;;
45114;SDS011;30877;43.706;10.780;2022-12-26T00:56:37;9.30;;;8.40;;
45114;SDS011;30877;43.706;10.780;2022-12-26T00:59:06;8.90;;;8.05;;
45114;SDS011;30877;43.706;10.780;2022-12-26T01:01:35;8.15;;;7.45;;
45114;SDS011;30877;43.706;10.780;2022-12-26T01:04:03;8.85;;;7.85;;
45114;SDS011;30877;43.706;10.780;2022-12-26T01:06:32;9.05;;;8.05;;
45114;SDS011;30877;43.706;10.780;2022-12-26T01:09:00;11.10;;;9.00;;
45114;SDS011;30877;43.706;10.780;2022-12-26T01:11:28;14.18;;;10.20;;
45114;SDS011;30877;43.706;10.780;2022-12-26T01:14:11;16.15;;;10.18;;
45114;SDS011;30877;43.706;10.780;2022-12-26T01:16:41;16.08;;;10.25;;
45114;SDS011;30877;43.706;10.780;2022-12-26T01:19:11;22.58;;;10.55;;
45114;SDS011;30877;43.706;10.780;2022-12-26T01:21:40;16.33;;;9.55;;
45114;SDS011;30877;43.706;10.780;2022-12-26T01:24:09;14.25;;;8.63;;
45114;SDS011;30877;43.706;10.780;2022-12-26T01:26:37;14.70;;;8.40;;
45114;SDS011;30877;43.706;10.780;2022-12-26T01:29:05;13.55;;;6.60;;
45114;SDS011;30877;43.706;10.780;2022-12-26T01:31:36;16.88;;;6.57;;
45114;SDS011;30877;43.706;10.780;2022-12-26T01:34:12;24.80;;;5.57;;
45114;SDS011;30877;43.706;10.780;2022-12-26T01:36:40;11.90;;;5.75;;
45114;SDS011;30877;43.706;10.780;2022-12-26T01:39:09;15.95;;;5.45;;
45114;SDS011;30877;43.706;10.780;2022-12-26T01:41:37;8.60;;;4.93;;
45114;SDS011;30877;43.706;10.780;2022-12-26T07:42:10;6.13;;;4.13;;
45114;SDS011;30877;43.706;10.780;2022-12-26T07:44:38;4.30;;;3.90;;
45114;SDS011;30877;43.706;10.780;2022-12-26T07:47:06;5.65;;;4.30;;
45114;SDS011;30877;43.706;10.780;2022-12-26T07:49:35;6.00;;;4.80;;
45114;SDS011;30877;43.706;10.780;2022-12-26T07:52:03;4.85;;;3.72;;
45114;SDS011;30877;43.706;10.780;2022-12-26T07:54:32;6.13;;;4.03;;
45114;SDS011;30877;43.706;10.780;2022-12-26T07:57:00;6.25;;;4.45;;
45114;SDS011;30877;43.706;10.780;2022-12-26T07:59:50;4.80;;;3.83;;
45114;SDS011;30877;43.706;10.780;2022-12-26T08:02:20;4.47;;;3.30;;
45114;SDS011;30877;43.706;10.780;2022-12-26T08:04:50;3.80;;;3.40;;
45114;SDS011;30877;43.706;10.780;2022-12-26T08:07:18;4.68;;;3.17;;
45114;SDS011;30877;43.706;10.780;2022-12-26T08:09:46;6.55;;;4.30;;
45114;SDS011;30877;43.706;10.780;2022-12-26T08:12:14;4.93;;;3.50;;
45114;SDS011;30877;43.706;10.780;2022-12-26T08:14:43;6.28;;;3.80;;
45114;SDS011;30877;43.706;10.780;2022-12-26T08:17:14;6.35;;;3.88;;
45114;SDS011;30877;43.706;10.780;2022-12-26T08:19:43;5.90;;;5.18;;
45114;SDS011;30877;43.706;10.780;2022-12-26T08:22:11;5.53;;;4.70;;
45114;SDS011;30877;43.706;10.780;2022-12-26T08:24:40;6.93;;;4.68;;
45114;SDS011;30877;43.706;10.780;2022-12-26T08:27:08;5.35;;;4.50;;
45114;SDS011;30877;43.706;10.780;2022-12-26T08:29:36;5.13;;;4.45;;
45114;SDS011;30877;43.706;10.780;2022-12-26T08:32:06;5.80;;;4.70;;
45114;SDS011;30877;43.706;10.780;2022-12-26T08:34:36;5.78;;;4.75;;
45114;SDS011;30877;43.706;10.780;2022-12-26T08:37:04;5.00;;;3.92;;
45114;SDS011;30877;43.706;10.780;2022-12-26T08:39:32;5.57;;;3.85;;
45114;SDS011;30877;43.706;10.780;2022-12-26T08:42:00;4.75;;;4.25;;
45114;SDS011;30877;43.706;10.780;2022-12-26T08:44:28;5.75;;;4.85;;
45114;SDS011;30877;43.706;10.780;2022-12-26T08:46:57;10.30;;;7.32;;
45114;SDS011;30877;43.706;10.780;2022-12-26T08:49:27;7.97;;;6.65;;
45114;SDS011;30877;43.706;10.780;2022-12-26T08:51:57;8.02;;;6.13;;
45114;SDS011;30877;43.706;10.780;2022-12-26T08:54:24;7.32;;;5.63;;
45114;SDS011;30877;43.706;10.780;2022-12-26T08:56:52;6.97;;;5.90;;
45114;SDS011;30877;43.706;10.780;2022-12-26T08:59:20;5.47;;;4.97;;
45114;SDS011;30877;43.706;10.780;2022-12-26T09:01:49;5.70;;;4.60;;
45114;SDS011;30877;43.706;10.780;2022-12-26T09:04:18;5.28;;;4.78;;
45114;SDS011;30877;43.706;10.780;2022-12-26T09:06:46;13.02;;;9.43;;
45114;SDS011;30877;43.706;10.780;2022-12-26T09:09:16;15.93;;;11.18;;
45114;SDS011;30877;43.706;10.780;2022-12-26T09:11:44;8.77;;;7.65;;
45114;SDS011;30877;43.706;10.780;2022-12-26T09:14:12;8.27;;;6.28;;
45114;SDS011;30877;43.706;10.780;2022-12-26T09:16:41;7.65;;;5.95;;
45114;SDS011;30877;43.706;10.780;2022-12-26T09:19:16;6.88;;;4.82;;
45114;SDS011;30877;43.706;10.780;2022-12-26T09:21:45;5.57;;;4.13;;
45114;SDS011;30877;43.706;10.780;2022-12-26T09:24:16;5.38;;;4.50;;
45114;SDS011;30877;43.706;10.780;2022-12-26T09:26:44;6.70;;;4.43;;
45114;SDS011;30877;43.706;10.780;2022-12-26T09:29:12;5.95;;;4.30;;
45114;SDS011;30877;43.706;10.780;2022-12-26T09:31:41;4.60;;;4.20;;
45114;SDS011;30877;43.706;10.780;2022-12-26T09:34:11;4.30;;;3.95;;
45114;SDS011;30877;43.706;10.780;2022-12-26T09:36:40;6.18;;;5.10;;
45114;SDS011;30877;43.706;10.780;2022-12-26T09:42:17;6.20;;;4.70;;
45114;SDS011;30877;43.706;10.780;2022-12-26T09:44:56;6.70;;;5.45;;
45114;SDS011;30877;43.706;10.780;2022-12-26T09:47:32;5.95;;;4.88;;
45114;SDS011;30877;43.706;10.780;2022-12-26T09:50:03;5.75;;;4.30;;
45114;SDS011;30877;43.706;10.780;2022-12-26T09:52:38;9.13;;;6.50;;
45114;SDS011;30877;43.706;10.780;2022-12-26T09:55:24;8.35;;;6.53;;
45114;SDS011;30877;43.706;10.780;2022-12-26T09:58:03;7.00;;;6.30;;
45114;SDS011;30877;43.706;10.780;2022-12-26T10:00:37;9.82;;;6.45;;
45114;SDS011;30877;43.706;10.780;2022-12-26T10:03:12;7.00;;;6.30;;
45114;SDS011;30877;43.706;10.780;2022-12-26T10:05:42;9.35;;;7.40;;
45114;SDS011;30877;43.706;10.780;2022-12-26T10:08:20;8.75;;;7.85;;
45114;SDS011;30877;43.706;10.780;2022-12-26T10:10:57;15.25;;;11.23;;
45114;SDS011;30877;43.706;10.780;2022-12-26T10:13:31;11.20;;;6.90;;
45114;SDS011;30877;43.706;10.780;2022-12-26T10:16:02;8.40;;;6.70;;
45114;SDS011;30877;43.706;10.780;2022-12-26T10:18:36;7.25;;;6.50;;
45114;SDS011;30877;43.706;10.780;2022-12-26T10:21:27;6.65;;;5.95;;
45114;SDS011;30877;43.706;10.780;2022-12-26T10:26:39;6.97;;;5.78;;
45114;SDS011;30877;43.706;10.780;2022-12-26T10:29:11;7.55;;;6.78;;
45114;SDS011;30877;43.706;10.780;2022-12-26T10:31:45;8.35;;;7.00;;
45114;SDS011;30877;43.706;10.780;2022-12-26T10:34:17;10.32;;;6.95;;
45114;SDS011;30877;43.706;10.780;2022-12-26T10:36:50;9.40;;;6.35;;
45114;SDS011;30877;43.706;10.780;2022-12-26T10:39:21;9.00;;;6.65;;
45114;SDS011;30877;43.706;10.780;2022-12-26T10:41:54;11.35;;;6.95;;
45114;SDS011;30877;43.706;10.780;2022-12-26T10:44:25;7.60;;;6.53;;
45114;SDS011;30877;43.706;10.780;2022-12-26T10:46:56;9.35;;;7.60;;
45114;SDS011;30877;43.706;10.780;2022-12-26T10:49:49;12.18;;;8.15;;
45114;SDS011;30877;43.706;10.780;2022-12-26T10:52:18;10.40;;;7.50;;
45114;SDS011;30877;43.706;10.780;2022-12-26T10:54:50;8.45;;;6.97;;
45114;SDS011;30877;43.706;10.780;2022-12-26T10:57:43;8.25;;;6.47;;
45114;SDS011;30877;43.706;10.780;2022-12-26T11:00:18;6.40;;;5.72;;
45114;SDS011;30877;43.706;10.780;2022-12-26T11:03:00;6.53;;;5.80;;
45114;SDS011;30877;43.706;10.780;2022-12-26T11:05:29;9.20;;;6.22;;
45114;SDS011;30877;43.706;10.780;2022-12-26T11:08:19;9.73;;;7.20;;
45114;SDS011;30877;43.706;10.780;2022-12-26T11:11:00;12.27;;;9.10;;
45114;SDS011;30877;43.706;10.780;2022-12-26T11:13:33;13.90;;;11.73;;
45114;SDS011;30877;43.706;10.780;2022-12-26T11:16:13;15.25;;;13.10;;
45114;SDS011;30877;43.706;10.780;2022-12-26T11:18:52;21.08;;;18.02;;
45114;SDS011;30877;43.706;10.780;2022-12-26T11:21:21;8.75;;;7.43;;
45114;SDS011;30877;43.706;10.780;2022-12-26T11:24:09;9.75;;;7.10;;
45114;SDS011;30877;43.706;10.780;2022-12-26T11:26:42;10.70;;;7.82;;
45114;SDS011;30877;43.706;10.780;2022-12-26T11:29:13;11.32;;;8.07;;
45114;SDS011;30877;43.706;10.780;2022-12-26T11:31:43;13.15;;;8.82;;
45114;SDS011;30877;43.706;10.780;2022-12-26T11:34:19;12.63;;;8.65;;
45114;SDS011;30877;43.706;10.780;2022-12-26T11:36:55;14.30;;;11.10;;
45114;SDS011;30877;43.706;10.780;2022-12-26T11:39:23;9.27;;;7.95;;
45114;SDS011;30877;43.706;10.780;2022-12-26T11:41:54;14.05;;;7.63;;
45114;SDS011;30877;43.706;10.780;2022-12-26T11:44:25;11.68;;;7.40;;
45114;SDS011;30877;43.706;10.780;2022-12-26T11:47:00;11.57;;;7.53;;
45114;SDS011;30877;43.706;10.780;2022-12-26T11:49:36;8.90;;;8.00;;
45114;SDS011;30877;43.706;10.780;2022-12-26T11:55:23;13.27;;;8.65;;
45114;SDS011;30877;43.706;10.780;2022-12-26T11:58:14;10.93;;;8.15;;
45114;SDS011;30877;43.706;10.780;2022-12-26T12:03:39;10.45;;;7.53;;
45114;SDS011;30877;43.706;10.780;2022-12-26T12:06:21;9.60;;;6.82;;
45114;SDS011;30877;43.706;10.780;2022-12-26T12:09:06;7.78;;;6.90;;
45114;SDS011;30877;43.706;10.780;2022-12-26T12:11:45;9.82;;;7.28;;
45114;SDS011;30877;43.706;10.780;2022-12-26T12:14:22;9.18;;;7.60;;
45114;SDS011;30877;43.706;10.780;2022-12-26T12:17:05;8.32;;;7.40;;
45114;SDS011;30877;43.706;10.780;2022-12-26T12:19:44;9.25;;;7.82;;
45114;SDS011;30877;43.706;10.780;2022-12-26T12:22:30;8.93;;;7.93;;
45114;SDS011;30877;43.706;10.780;2022-12-26T12:28:08;11.00;;;9.15;;
45114;SDS011;30877;43.706;10.780;2022-12-26T12:30:49;13.52;;;10.13;;
45114;SDS011;30877;43.706;10.780;2022-12-26T12:33:29;10.77;;;9.68;;
45114;SDS011;30877;43.706;10.780;2022-12-26T12:36:07;14.05;;;10.60;;
45114;SDS011;30877;43.706;10.780;2022-12-26T12:38:45;11.15;;;9.20;;
45114;SDS011;30877;43.706;10.780;2022-12-26T12:41:30;11.73;;;9.90;;
45114;SDS011;30877;43.706;10.780;2022-12-26T12:44:21;11.85;;;9.63;;
45114;SDS011;30877;43.706;10.780;2022-12-26T12:46:58;10.53;;;9.30;;
45114;SDS011;30877;43.706;10.780;2022-12-26T12:49:44;11.70;;;8.93;;
45114;SDS011;30877;43.706;10.780;2022-12-26T12:52:31;10.70;;;8.40;;
45114;SDS011;30877;43.706;10.780;2022-12-26T12:55:23;10.77;;;9.02;;
45114;SDS011;30877;43.706;10.780;2022-12-26T12:58:01;38.15;;;25.85;;
45114;SDS011;30877;43.706;10.780;2022-12-26T13:00:38;14.65;;;11.05;;
45114;SDS011;30877;43.706;10.780;2022-12-26T13:03:10;15.43;;;12.25;;
45114;SDS011;30877;43.706;10.780;2022-12-26T13:05:51;26.48;;;19.88;;
45114;SDS011;30877;43.706;10.780;2022-12-26T13:08:26;23.83;;;18.73;;
45114;SDS011;30877;43.706;10.780;2022-12-26T13:11:00;17.70;;;15.80;;
45114;SDS011;30877;43.706;10.780;2022-12-26T13:13:33;18.58;;;14.65;;
45114;SDS011;30877;43.706;10.780;2022-12-26T13:16:04;15.18;;;13.25;;
45114;SDS011;30877;43.706;10.780;2022-12-26T13:18:39;18.02;;;13.68;;
45114;SDS011;30877;43.706;10.780;2022-12-26T13:21:13;29.58;;;24.35;;
45114;SDS011;30877;43.706;10.780;2022-12-26T13:23:43;30.75;;;26.00;;
45114;SDS011;30877;43.706;10.780;2022-12-26T13:26:34;16.65;;;11.05;;
45114;SDS011;30877;43.706;10.780;2022-12-26T13:29:12;12.70;;;9.25;;
45114;SDS011;30877;43.706;10.780;2022-12-26T13:31:44;17.00;;;12.02;;
45114;SDS011;30877;43.706;10.780;2022-12-26T13:34:13;13.63;;;8.65;;
45114;SDS011;30877;43.706;10.780;2022-12-26T13:36:46;10.80;;;6.38;;
45114;SDS011;30877;43.706;10.780;2022-12-26T13:39:29;8.40;;;5.50;;
45114;SDS011;30877;43.706;10.780;2022-12-26T13:42:04;16.70;;;12.20;;
45114;SDS011;30877;43.706;10.780;2022-12-26T13:54:14;18.42;;;14.05;;
45114;SDS011;30877;43.706;10.780;2022-12-26T13:59:40;22.30;;;15.25;;
45114;SDS011;30877;43.706;10.780;2022-12-26T14:02:22;77.45;;;59.78;;
45114;SDS011;30877;43.706;10.780;2022-12-26T14:05:29;39.25;;;31.10;;
45114;SDS011;30877;43.706;10.780;2022-12-26T14:08:05;34.63;;;25.98;;
45114;SDS011;30877;43.706;10.780;2022-12-26T14:10:44;35.38;;;24.23;;
45114;SDS011;30877;43.706;10.780;2022-12-26T14:13:35;20.98;;;13.57;;
45114;SDS011;30877;43.706;10.780;2022-12-26T14:16:21;17.17;;;9.90;;
45114;SDS011;30877;43.706;10.780;2022-12-26T14:18:58;23.38;;;17.13;;
45114;SDS011;30877;43.706;10.780;2022-12-26T14:21:36;14.77;;;8.60;;
45114;SDS011;30877;43.706;10.780;2022-12-26T14:24:24;15.90;;;10.18;;
45114;SDS011;30877;43.706;10.780;2022-12-26T14:27:08;19.80;;;11.30;;
45114;SDS011;30877;43.706;10.780;2022-12-26T14:29:50;16.55;;;10.27;;
45114;SDS011;30877;43.706;10.780;2022-12-26T14:32:27;10.57;;;6.30;;
45114;SDS011;30877;43.706;10.780;2022-12-26T14:35:05;8.07;;;5.20;;
45114;SDS011;30877;43.706;10.780;2022-12-26T14:37:42;7.63;;;4.82;;
45114;SDS011;30877;43.706;10.780;2022-12-26T14:40:26;7.38;;;4.80;;
45114;SDS011;30877;43.706;10.780;2022-12-26T14:45:58;16.85;;;11.63;;
45114;SDS011;30877;43.706;10.780;2022-12-26T14:48:48;23.15;;;16.08;;
45114;SDS011;30877;43.706;10.780;2022-12-26T14:51:37;19.88;;;13.27;;
45114;SDS011;30877;43.706;10.780;2022-12-26T14:54:19;14.55;;;9.40;;
45114;SDS011;30877;43.706;10.780;2022-12-26T15:00:31;12.48;;;8.30;;
45114;SDS011;30877;43.706;10.780;2022-12-26T15:06:21;12.18;;;6.78;;
45114;SDS011;30877;43.706;10.780;2022-12-26T15:09:16;11.52;;;6.80;;
45114;SDS011;30877;43.706;10.780;2022-12-26T15:15:32;11.30;;;7.18;;
45114;SDS011;30877;43.706;10.780;2022-12-26T15:18:16;11.40;;;8.18;;
45114;SDS011;30877;43.706;10.780;2022-12-26T15:21:15;10.02;;;6.35;;
45114;SDS011;30877;43.706;10.780;2022-12-26T15:24:28;11.88;;;8.00;;
45114;SDS011;30877;43.706;10.780;2022-12-26T15:27:52;27.70;;;17.00;;
45114;SDS011;30877;43.706;10.780;2022-12-26T15:33:59;14.20;;;10.07;;
45114;SDS011;30877;43.706;10.780;2022-12-26T15:36:46;11.90;;;7.38;;
45114;SDS011;30877;43.706;10.780;2022-12-26T15:39:22;9.93;;;5.55;;
45114;SDS011;30877;43.706;10.780;2022-12-26T15:41:56;8.07;;;3.80;;
45114;SDS011;30877;43.706;10.780;2022-12-26T15:44:39;5.97;;;3.65;;
45114;SDS011;30877;43.706;10.780;2022-12-26T15:47:17;9.68;;;3.22;;
45114;SDS011;30877;43.706;10.780;2022-12-26T15:50:01;5.80;;;3.70;;
45114;SDS011;30877;43.706;10.780;2022-12-26T15:52:49;9.23;;;3.37;;
45114;SDS011;30877;43.706;10.780;2022-12-26T15:58:28;22.17;;;13.90;;
45114;SDS011;30877;43.706;10.780;2022-12-26T16:01:08;30.92;;;18.83;;
45114;SDS011;30877;43.706;10.780;2022-12-26T16:03:40;37.38;;;21.73;;
45114;SDS011;30877;43.706;10.780;2022-12-26T16:06:19;36.63;;;20.77;;
45114;SDS011;30877;43.706;10.780;2022-12-26T16:09:10;28.80;;;15.75;;
45114;SDS011;30877;43.706;10.780;2022-12-26T16:11:51;24.05;;;12.43;;
45114;SDS011;30877;43.706;10.780;2022-12-26T16:14:24;26.50;;;13.60;;
45114;SDS011;30877;43.706;10.780;2022-12-26T16:17:07;24.20;;;13.38;;
45114;SDS011;30877;43.706;10.780;2022-12-26T16:19:44;13.65;;;8.95;;
45114;SDS011;30877;43.706;10.780;2022-12-26T16:22:14;14.43;;;6.97;;
45114;SDS011;30877;43.706;10.780;2022-12-26T16:25:04;11.10;;;5.95;;
45114;SDS011;30877;43.706;10.780;2022-12-26T16:27:34;9.35;;;6.28;;
45114;SDS011;30877;43.706;10.780;2022-12-26T16:30:04;15.10;;;8.63;;
45114;SDS011;30877;43.706;10.780;2022-12-26T16:32:38;21.73;;;12.45;;
45114;SDS011;30877;43.706;10.780;2022-12-26T16:35:15;32.30;;;17.38;;
45114;SDS011;30877;43.706;10.780;2022-12-26T16:38:10;19.65;;;9.65;;
45114;SDS011;30877;43.706;10.780;2022-12-26T16:40:41;9.13;;;4.65;;
45114;SDS011;30877;43.706;10.780;2022-12-26T16:43:21;6.22;;;3.88;;
45114;SDS011;30877;43.706;10.780;2022-12-26T16:45:52;10.63;;;3.70;;
45114;SDS011;30877;43.706;10.780;2022-12-26T16:48:25;6.70;;;3.88;;
45114;SDS011;30877;43.706;10.780;2022-12-26T16:50:58;10.43;;;4.10;;
45114;SDS011;30877;43.706;10.780;2022-12-26T16:53:40;6.25;;;3.35;;
45114;SDS011;30877;43.706;10.780;2022-12-26T16:56:16;10.40;;;3.95;;
45114;SDS011;30877;43.706;10.780;2022-12-26T16:58:53;8.45;;;3.78;;
45114;SDS011;30877;43.706;10.780;2022-12-26T17:01:30;7.25;;;3.58;;
45114;SDS011;30877;43.706;10.780;2022-12-26T17:04:01;7.68;;;3.97;;
45114;SDS011;30877;43.706;10.780;2022-12-26T17:06:34;7.72;;;4.28;;
45114;SDS011;30877;43.706;10.780;2022-12-26T17:09:06;7.25;;;4.05;;
45114;SDS011;30877;43.706;10.780;2022-12-26T17:11:37;12.35;;;6.28;;
45114;SDS011;30877;43.706;10.780;2022-12-26T17:14:16;15.70;;;7.30;;
45114;SDS011;30877;43.706;10.780;2022-12-26T17:16:50;39.67;;;19.33;;
45114;SDS011;30877;43.706;10.780;2022-12-26T17:19:25;40.38;;;19.88;;
45114;SDS011;30877;43.706;10.780;2022-12-26T17:22:15;26.45;;;13.88;;
45114;SDS011;30877;43.706;10.780;2022-12-26T17:30:48;18.08;;;8.93;;
45114;SDS011;30877;43.706;10.780;2022-12-26T17:33:19;25.10;;;13.35;;
45114;SDS011;30877;43.706;10.780;2022-12-26T17:35:50;27.05;;;16.75;;
45114;SDS011;30877;43.706;10.780;2022-12-26T17:38:42;28.10;;;16.65;;
45114;SDS011;30877;43.706;10.780;2022-12-26T17:41:12;25.13;;;16.58;;
45114;SDS011;30877;43.706;10.780;2022-12-26T17:43:42;28.27;;;17.58;;
45114;SDS011;30877;43.706;10.780;2022-12-26T17:46:13;24.83;;;16.30;;
45114;SDS011;30877;43.706;10.780;2022-12-26T17:48:42;26.08;;;16.27;;
45114;SDS011;30877;43.706;10.780;2022-12-26T17:51:14;28.73;;;16.23;;
45114;SDS011;30877;43.706;10.780;2022-12-26T17:53:47;23.38;;;15.88;;
45114;SDS011;30877;43.706;10.780;2022-12-26T17:56:17;27.02;;;16.65;;
45114;SDS011;30877;43.706;10.780;2022-12-26T17:58:49;24.73;;;17.30;;
45114;SDS011;30877;43.706;10.780;2022-12-26T18:01:18;24.38;;;16.65;;
45114;SDS011;30877;43.706;10.780;2022-12-26T18:03:48;27.00;;;17.50;;
45114;SDS011;30877;43.706;10.780;2022-12-26T18:06:19;27.33;;;17.58;;
45114;SDS011;30877;43.706;10.780;2022-12-26T18:08:50;28.55;;;20.85;;
45114;SDS011;30877;43.706;10.780;2022-12-26T18:11:18;30.73;;;19.65;;
45114;SDS011;30877;43.706;10.780;2022-12-26T18:13:47;26.27;;;17.83;;
45114;SDS011;30877;43.706;10.780;2022-12-26T18:16:15;27.35;;;18.60;;
45114;SDS011;30877;43.706;10.780;2022-12-26T18:18:46;30.90;;;20.83;;
45114;SDS011;30877;43.706;10.780;2022-12-26T18:21:14;27.77;;;20.00;;
45114;SDS011;30877;43.706;10.780;2022-12-26T18:23:43;33.75;;;21.40;;
45114;SDS011;30877;43.706;10.780;2022-12-26T18:26:13;28.80;;;20.35;;
45114;SDS011;30877;43.706;10.780;2022-12-26T18:28:46;25.33;;;19.38;;
45114;SDS011;30877;43.706;10.780;2022-12-26T18:31:16;24.92;;;18.65;;
45114;SDS011;30877;43.706;10.780;2022-12-26T18:33:44;24.75;;;18.08;;
45114;SDS011;30877;43.706;10.780;2022-12-26T18:36:13;24.33;;;18.15;;
45114;SDS011;30877;43.706;10.780;2022-12-26T18:38:42;24.23;;;18.20;;
45114;SDS011;30877;43.706;10.780;2022-12-26T18:41:13;21.33;;;16.73;;
45114;SDS011;30877;43.706;10.780;2022-12-26T18:43:43;19.38;;;16.00;;
45114;SDS011;30877;43.706;10.780;2022-12-26T18:46:13;21.20;;;16.67;;
45114;SDS011;30877;43.706;10.780;2022-12-26T18:48:43;18.95;;;15.95;;
45114;SDS011;30877;43.706;10.780;2022-12-26T18:51:12;23.10;;;17.23;;
45114;SDS011;30877;43.706;10.780;2022-12-26T18:53:40;20.48;;;15.50;;
45114;SDS011;30877;43.706;10.780;2022-12-26T18:56:09;19.17;;;15.52;;
45114;SDS011;30877;43.706;10.780;2022-12-26T18:58:42;25.63;;;19.52;;
45114;SDS011;30877;43.706;10.780;2022-12-26T19:01:11;27.80;;;19.48;;
45114;SDS011;30877;43.706;10.780;2022-12-26T19:03:41;25.27;;;19.48;;
45114;SDS011;30877;43.706;10.780;2022-12-26T19:06:10;26.65;;;20.08;;
45114;SDS011;30877;43.706;10.780;2022-12-26T19:08:41;28.65;;;21.50;;
45114;SDS011;30877;43.706;10.780;2022-12-26T19:11:10;24.38;;;19.73;;
45114;SDS011;30877;43.706;10.780;2022-12-26T19:13:41;33.13;;;22.13;;
45114;SDS011;30877;43.706;10.780;2022-12-26T19:16:09;25.65;;;20.20;;
45114;SDS011;30877;43.706;10.780;2022-12-26T19:18:58;23.75;;;19.13;;
45114;SDS011;30877;43.706;10.780;2022-12-26T19:21:28;24.38;;;19.52;;
45114;SDS011;30877;43.706;10.780;2022-12-26T19:23:59;23.00;;;17.63;;
45114;SDS011;30877;43.706;10.780;2022-12-26T19:26:27;19.98;;;15.82;;
45114;SDS011;30877;43.706;10.780;2022-12-26T19:28:57;22.85;;;17.40;;
45114;SDS011;30877;43.706;10.780;2022-12-26T19:31:25;23.90;;;16.65;;
45114;SDS011;30877;43.706;10.780;2022-12-26T19:33:55;22.23;;;17.17;;
45114;SDS011;30877;43.706;10.780;2022-12-26T19:36:25;22.55;;;17.08;;
45114;SDS011;30877;43.706;10.780;2022-12-26T19:38:53;26.63;;;19.42;;
45114;SDS011;30877;43.706;10.780;2022-12-26T19:41:22;22.33;;;17.50;;
45114;SDS011;30877;43.706;10.780;2022-12-26T19:43:54;21.15;;;15.00;;
45114;SDS011;30877;43.706;10.780;2022-12-26T19:46:25;17.80;;;14.57;;
45114;SDS011;30877;43.706;10.780;2022-12-26T19:48:54;18.85;;;15.00;;
45114;SDS011;30877;43.706;10.780;2022-12-26T19:51:22;18.85;;;14.73;;
45114;SDS011;30877;43.706;10.780;2022-12-26T19:53:52;21.23;;;15.95;;
45114;SDS011;30877;43.706;10.780;2022-12-26T19:56:21;27.33;;;20.27;;
45114;SDS011;30877;43.706;10.780;2022-12-26T19:58:52;27.83;;;20.88;;
45114;SDS011;30877;43.706;10.780;2022-12-26T20:01:24;24.10;;;18.40;;
45114;SDS011;30877;43.706;10.780;2022-12-26T20:03:54;19.90;;;14.70;;
45114;SDS011;30877;43.706;10.780;2022-12-26T20:06:23;17.83;;;11.95;;
45114;SDS011;30877;43.706;10.780;2022-12-26T20:08:54;15.18;;;12.02;;
45114;SDS011;30877;43.706;10.780;2022-12-26T20:11:24;13.57;;;11.18;;
45114;SDS011;30877;43.706;10.780;2022-12-26T20:13:55;12.35;;;10.55;;
45114;SDS011;30877;43.706;10.780;2022-12-26T20:16:26;16.02;;;10.43;;
45114;SDS011;30877;43.706;10.780;2022-12-26T20:19:15;12.77;;;10.10;;
45114;SDS011;30877;43.706;10.780;2022-12-26T20:21:43;20.27;;;11.30;;
45114;SDS011;30877;43.706;10.780;2022-12-26T20:24:11;17.05;;;11.90;;
45114;SDS011;30877;43.706;10.780;2022-12-26T20:26:40;17.00;;;11.13;;
45114;SDS011;30877;43.706;10.780;2022-12-26T20:29:08;13.25;;;10.32;;
45114;SDS011;30877;43.706;10.780;2022-12-26T20:31:38;13.00;;;9.93;;
45114;SDS011;30877;43.706;10.780;2022-12-26T20:34:08;17.15;;;13.35;;
45114;SDS011;30877;43.706;10.780;2022-12-26T20:36:38;15.70;;;11.13;;
45114;SDS011;30877;43.706;10.780;2022-12-26T20:39:08;13.60;;;9.68;;
45114;SDS011;30877;43.706;10.780;2022-12-26T20:41:39;9.40;;;7.63;;
45114;SDS011;30877;43.706;10.780;2022-12-26T20:44:08;10.55;;;7.22;;
45114;SDS011;30877;43.706;10.780;2022-12-26T20:46:39;10.70;;;8.38;;
45114;SDS011;30877;43.706;10.780;2022-12-26T20:49:08;9.52;;;7.55;;
45114;SDS011;30877;43.706;10.780;2022-12-26T20:51:37;9.75;;;7.63;;
45114;SDS011;30877;43.706;10.780;2022-12-26T20:54:07;10.55;;;7.10;;
45114;SDS011;30877;43.706;10.780;2022-12-26T20:56:38;9.88;;;7.95;;
45114;SDS011;30877;43.706;10.780;2022-12-26T20:59:06;14.20;;;10.43;;
45114;SDS011;30877;43.706;10.780;2022-12-26T21:01:35;9.98;;;7.47;;
45114;SDS011;30877;43.706;10.780;2022-12-26T21:04:07;9.32;;;6.40;;
45114;SDS011;30877;43.706;10.780;2022-12-26T21:06:41;9.07;;;7.68;;
45114;SDS011;30877;43.706;10.780;2022-12-26T21:09:12;8.18;;;7.10;;
45114;SDS011;30877;43.706;10.780;2022-12-26T21:11:40;11.18;;;9.30;;
45114;SDS011;30877;43.706;10.780;2022-12-26T21:14:12;9.02;;;7.72;;
45114;SDS011;30877;43.706;10.780;2022-12-26T21:16:42;9.18;;;6.80;;
45114;SDS011;30877;43.706;10.780;2022-12-26T21:19:13;7.15;;;6.15;;
45114;SDS011;30877;43.706;10.780;2022-12-26T21:21:43;6.63;;;5.72;;
45114;SDS011;30877;43.706;10.780;2022-12-26T21:24:13;8.77;;;6.30;;
45114;SDS011;30877;43.706;10.780;2022-12-26T21:26:41;7.72;;;5.95;;
45114;SDS011;30877;43.706;10.780;2022-12-26T21:29:11;8.30;;;6.40;;
45114;SDS011;30877;43.706;10.780;2022-12-26T21:31:40;6.60;;;5.90;;
45114;SDS011;30877;43.706;10.780;2022-12-26T21:34:09;6.90;;;5.10;;
45114;SDS011;30877;43.706;10.780;2022-12-26T21:36:42;7.25;;;5.95;;
45114;SDS011;30877;43.706;10.780;2022-12-26T21:39:33;10.10;;;6.80;;
45114;SDS011;30877;43.706;10.780;2022-12-26T21:42:02;7.78;;;6.57;;
45114;SDS011;30877;43.706;10.780;2022-12-26T21:44:32;7.93;;;5.72;;
45114;SDS011;30877;43.706;10.780;2022-12-26T21:47:00;8.30;;;6.50;;
45114;SDS011;30877;43.706;10.780;2022-12-26T21:49:29;9.30;;;6.38;;
45114;SDS011;30877;43.706;10.780;2022-12-26T21:51:58;26.00;;;16.13;;